sensor_id;sensor_type;location;lat;lon;timestamp;P1;durP1;ratioP1;P2;durP2;ratioP2
75687;SDS011;64300;45.034;38.910;2023-04-15T00:02:14;2.67;;;1.42;;
75687;SDS011;64300;45.034;38.910;2023-04-15T00:04:39;3.22;;;1.30;;
75687;SDS011;64300;45.034;38.910;2023-04-15T00:07:05;4.53;;;1.33;;
75687;SDS011;64300;45.034;38.910;2023-04-15T00:09:30;3.80;;;1.73;;
75687;SDS011;64300;45.034;38.910;2023-04-15T00:11:56;3.10;;;1.20;;
75687;SDS011;64300;45.034;38.910;2023-04-15T00:14:21;4.00;;;1.58;;
75687;SDS011;64300;45.034;38.910;2023-04-15T00:16:47;3.50;;;1.50;;
75687;SDS011;64300;45.034;38.910;2023-04-15T00:21:45;3.83;;;1.27;;
75687;SDS011;64300;45.034;38.910;2023-04-15T00:24:10;3.20;;;1.20;;
75687;SDS011;64300;45.034;38.910;2023-04-15T00:26:36;4.53;;;1.27;;
75687;SDS011;64300;45.034;38.910;2023-04-15T00:29:02;3.10;;;1.10;;
75687;SDS011;64300;45.034;38.910;2023-04-15T00:31:28;6.07;;;1.30;;
75687;SDS011;64300;45.034;38.910;2023-04-15T00:33:54;5.50;;;1.25;;
75687;SDS011;64300;45.034;38.910;2023-04-15T00:36:21;3.47;;;1.60;;
75687;SDS011;64300;45.034;38.910;2023-04-15T00:38:48;3.63;;;1.35;;
75687;SDS011;64300;45.034;38.910;2023-04-15T00:41:14;4.38;;;1.30;;
75687;SDS011;64300;45.034;38.910;2023-04-15T00:43:41;4.03;;;1.42;;
75687;SDS011;64300;45.034;38.910;2023-04-15T00:46:07;3.35;;;1.40;;
75687;SDS011;64300;45.034;38.910;2023-04-15T00:48:33;3.75;;;1.50;;
75687;SDS011;64300;45.034;38.910;2023-04-15T00:50:59;5.05;;;1.50;;
75687;SDS011;64300;45.034;38.910;2023-04-15T00:53:25;2.63;;;1.25;;
75687;SDS011;64300;45.034;38.910;2023-04-15T00:55:54;4.97;;;1.40;;
75687;SDS011;64300;45.034;38.910;2023-04-15T00:58:20;3.28;;;1.20;;
75687;SDS011;64300;45.034;38.910;2023-04-15T01:00:46;3.35;;;1.33;;
75687;SDS011;64300;45.034;38.910;2023-04-15T01:03:12;3.30;;;1.10;;
75687;SDS011;64300;45.034;38.910;2023-04-15T01:05:38;5.40;;;1.27;;
75687;SDS011;64300;45.034;38.910;2023-04-15T01:08:04;4.90;;;1.25;;
75687;SDS011;64300;45.034;38.910;2023-04-15T01:10:30;2.83;;;1.30;;
75687;SDS011;64300;45.034;38.910;2023-04-15T01:12:56;3.90;;;1.50;;
75687;SDS011;64300;45.034;38.910;2023-04-15T01:15:24;3.63;;;1.23;;
75687;SDS011;64300;45.034;38.910;2023-04-15T01:17:50;2.75;;;1.13;;
75687;SDS011;64300;45.034;38.910;2023-04-15T01:20:15;3.42;;;1.30;;
75687;SDS011;64300;45.034;38.910;2023-04-15T01:22:41;6.45;;;1.42;;
75687;SDS011;64300;45.034;38.910;2023-04-15T01:27:33;3.25;;;1.33;;
75687;SDS011;64300;45.034;38.910;2023-04-15T01:30:00;5.07;;;1.33;;
75687;SDS011;64300;45.034;38.910;2023-04-15T01:32:30;3.70;;;1.13;;
75687;SDS011;64300;45.034;38.910;2023-04-15T01:34:59;3.00;;;1.15;;
75687;SDS011;64300;45.034;38.910;2023-04-15T01:37:24;4.55;;;1.35;;
75687;SDS011;64300;45.034;38.910;2023-04-15T01:39:50;3.03;;;1.30;;
75687;SDS011;64300;45.034;38.910;2023-04-15T01:42:16;3.60;;;1.20;;
75687;SDS011;64300;45.034;38.910;2023-04-15T01:44:42;2.78;;;1.20;;
75687;SDS011;64300;45.034;38.910;2023-04-15T01:47:10;3.80;;;1.20;;
75687;SDS011;64300;45.034;38.910;2023-04-15T01:49:36;6.07;;;1.15;;
75687;SDS011;64300;45.034;38.910;2023-04-15T01:52:02;2.47;;;1.02;;
75687;SDS011;64300;45.034;38.910;2023-04-15T01:54:27;3.65;;;1.30;;
75687;SDS011;64300;45.034;38.910;2023-04-15T01:56:53;4.90;;;1.23;;
75687;SDS011;64300;45.034;38.910;2023-04-15T01:59:19;3.90;;;1.25;;
75687;SDS011;64300;45.034;38.910;2023-04-15T02:01:44;4.53;;;1.33;;
75687;SDS011;64300;45.034;38.910;2023-04-15T02:04:13;3.53;;;1.42;;
75687;SDS011;64300;45.034;38.910;2023-04-15T02:06:41;4.57;;;1.25;;
75687;SDS011;64300;45.034;38.910;2023-04-15T02:09:08;3.10;;;1.30;;
75687;SDS011;64300;45.034;38.910;2023-04-15T02:11:34;3.00;;;1.33;;
75687;SDS011;64300;45.034;38.910;2023-04-15T02:14:02;2.80;;;1.17;;
75687;SDS011;64300;45.034;38.910;2023-04-15T02:16:31;5.03;;;1.48;;
75687;SDS011;64300;45.034;38.910;2023-04-15T02:18:58;4.93;;;1.55;;
75687;SDS011;64300;45.034;38.910;2023-04-15T02:21:25;2.92;;;1.35;;
75687;SDS011;64300;45.034;38.910;2023-04-15T02:23:50;4.03;;;1.23;;
75687;SDS011;64300;45.034;38.910;2023-04-15T02:26:18;4.78;;;1.50;;
75687;SDS011;64300;45.034;38.910;2023-04-15T02:28:43;5.82;;;1.52;;
75687;SDS011;64300;45.034;38.910;2023-04-15T02:31:13;3.70;;;1.30;;
75687;SDS011;64300;45.034;38.910;2023-04-15T02:33:38;3.90;;;1.48;;
75687;SDS011;64300;45.034;38.910;2023-04-15T02:36:04;2.97;;;1.33;;
75687;SDS011;64300;45.034;38.910;2023-04-15T02:38:33;4.38;;;1.30;;
75687;SDS011;64300;45.034;38.910;2023-04-15T02:41:00;2.95;;;1.23;;
75687;SDS011;64300;45.034;38.910;2023-04-15T02:43:27;3.00;;;1.52;;
75687;SDS011;64300;45.034;38.910;2023-04-15T02:45:53;5.30;;;1.55;;
75687;SDS011;64300;45.034;38.910;2023-04-15T02:48:19;4.47;;;1.60;;
75687;SDS011;64300;45.034;38.910;2023-04-15T02:50:45;4.18;;;1.30;;
75687;SDS011;64300;45.034;38.910;2023-04-15T02:53:15;3.03;;;1.38;;
75687;SDS011;64300;45.034;38.910;2023-04-15T02:55:41;5.18;;;1.27;;
75687;SDS011;64300;45.034;38.910;2023-04-15T02:58:07;3.88;;;1.30;;
75687;SDS011;64300;45.034;38.910;2023-04-15T03:00:33;4.78;;;1.13;;
75687;SDS011;64300;45.034;38.910;2023-04-15T03:03:02;6.82;;;1.77;;
75687;SDS011;64300;45.034;38.910;2023-04-15T03:05:28;3.60;;;1.40;;
75687;SDS011;64300;45.034;38.910;2023-04-15T03:07:55;3.00;;;1.30;;
75687;SDS011;64300;45.034;38.910;2023-04-15T03:10:20;2.75;;;1.30;;
75687;SDS011;64300;45.034;38.910;2023-04-15T03:12:47;3.38;;;1.38;;
75687;SDS011;64300;45.034;38.910;2023-04-15T03:15:16;3.50;;;1.25;;
75687;SDS011;64300;45.034;38.910;2023-04-15T03:17:45;3.20;;;1.20;;
75687;SDS011;64300;45.034;38.910;2023-04-15T03:20:13;3.13;;;1.17;;
75687;SDS011;64300;45.034;38.910;2023-04-15T03:22:39;3.95;;;1.15;;
75687;SDS011;64300;45.034;38.910;2023-04-15T03:25:06;4.35;;;1.25;;
75687;SDS011;64300;45.034;38.910;2023-04-15T03:27:32;3.05;;;0.98;;
75687;SDS011;64300;45.034;38.910;2023-04-15T03:29:59;4.00;;;1.10;;
75687;SDS011;64300;45.034;38.910;2023-04-15T03:32:29;3.63;;;1.10;;
75687;SDS011;64300;45.034;38.910;2023-04-15T03:34:54;2.90;;;1.17;;
75687;SDS011;64300;45.034;38.910;2023-04-15T03:37:20;4.40;;;1.30;;
75687;SDS011;64300;45.034;38.910;2023-04-15T03:39:50;2.83;;;1.23;;
75687;SDS011;64300;45.034;38.910;2023-04-15T03:42:15;3.63;;;1.10;;
75687;SDS011;64300;45.034;38.910;2023-04-15T03:44:41;2.67;;;1.10;;
75687;SDS011;64300;45.034;38.910;2023-04-15T03:47:07;3.03;;;1.27;;
75687;SDS011;64300;45.034;38.910;2023-04-15T03:49:32;3.22;;;1.20;;
75687;SDS011;64300;45.034;38.910;2023-04-15T03:51:58;5.78;;;1.38;;
75687;SDS011;64300;45.034;38.910;2023-04-15T03:54:24;4.80;;;1.33;;
75687;SDS011;64300;45.034;38.910;2023-04-15T03:56:49;4.35;;;2.33;;
75687;SDS011;64300;45.034;38.910;2023-04-15T03:59:15;5.32;;;1.58;;
75687;SDS011;64300;45.034;38.910;2023-04-15T04:01:41;2.88;;;1.33;;
75687;SDS011;64300;45.034;38.910;2023-04-15T04:04:06;5.22;;;1.58;;
75687;SDS011;64300;45.034;38.910;2023-04-15T04:06:32;5.13;;;1.67;;
75687;SDS011;64300;45.034;38.910;2023-04-15T04:08:57;3.72;;;1.73;;
75687;SDS011;64300;45.034;38.910;2023-04-15T04:11:23;3.92;;;1.50;;
75687;SDS011;64300;45.034;38.910;2023-04-15T04:13:49;7.50;;;1.63;;
75687;SDS011;64300;45.034;38.910;2023-04-15T04:16:14;6.50;;;1.73;;
75687;SDS011;64300;45.034;38.910;2023-04-15T04:18:40;5.47;;;1.48;;
75687;SDS011;64300;45.034;38.910;2023-04-15T04:21:06;4.70;;;1.83;;
75687;SDS011;64300;45.034;38.910;2023-04-15T04:23:31;2.90;;;1.30;;
75687;SDS011;64300;45.034;38.910;2023-04-15T04:25:57;4.03;;;1.58;;
75687;SDS011;64300;45.034;38.910;2023-04-15T04:28:23;4.13;;;1.52;;
75687;SDS011;64300;45.034;38.910;2023-04-15T04:30:48;5.40;;;1.90;;
75687;SDS011;64300;45.034;38.910;2023-04-15T04:33:14;4.85;;;1.60;;
75687;SDS011;64300;45.034;38.910;2023-04-15T04:35:40;4.45;;;1.58;;
75687;SDS011;64300;45.034;38.910;2023-04-15T04:38:08;3.88;;;1.80;;
75687;SDS011;64300;45.034;38.910;2023-04-15T04:40:34;5.47;;;2.28;;
75687;SDS011;64300;45.034;38.910;2023-04-15T04:43:02;4.63;;;1.83;;
75687;SDS011;64300;45.034;38.910;2023-04-15T04:45:28;6.60;;;1.73;;
75687;SDS011;64300;45.034;38.910;2023-04-15T04:47:54;5.47;;;1.52;;
75687;SDS011;64300;45.034;38.910;2023-04-15T04:50:19;3.70;;;1.70;;
75687;SDS011;64300;45.034;38.910;2023-04-15T04:52:45;5.18;;;1.90;;
75687;SDS011;64300;45.034;38.910;2023-04-15T04:55:11;5.20;;;1.92;;
75687;SDS011;64300;45.034;38.910;2023-04-15T04:57:36;4.07;;;1.90;;
75687;SDS011;64300;45.034;38.910;2023-04-15T05:00:07;6.47;;;1.77;;
75687;SDS011;64300;45.034;38.910;2023-04-15T05:02:37;5.20;;;1.60;;
75687;SDS011;64300;45.034;38.910;2023-04-15T05:05:11;5.68;;;1.88;;
75687;SDS011;64300;45.034;38.910;2023-04-15T05:07:39;7.05;;;1.98;;
75687;SDS011;64300;45.034;38.910;2023-04-15T05:10:05;6.20;;;1.70;;
75687;SDS011;64300;45.034;38.910;2023-04-15T05:12:43;5.35;;;1.70;;
75687;SDS011;64300;45.034;38.910;2023-04-15T05:15:53;7.43;;;1.92;;
75687;SDS011;64300;45.034;38.910;2023-04-15T05:18:19;7.55;;;1.85;;
75687;SDS011;64300;45.034;38.910;2023-04-15T05:21:05;7.45;;;2.10;;
75687;SDS011;64300;45.034;38.910;2023-04-15T05:26:13;9.27;;;2.00;;
75687;SDS011;64300;45.034;38.910;2023-04-15T05:28:49;5.30;;;1.92;;
75687;SDS011;64300;45.034;38.910;2023-04-15T05:31:26;6.35;;;2.10;;
75687;SDS011;64300;45.034;38.910;2023-04-15T05:33:52;5.93;;;2.30;;
75687;SDS011;64300;45.034;38.910;2023-04-15T05:36:20;6.35;;;2.00;;
75687;SDS011;64300;45.034;38.910;2023-04-15T05:38:46;7.28;;;1.85;;
75687;SDS011;64300;45.034;38.910;2023-04-15T05:44:10;5.90;;;1.73;;
75687;SDS011;64300;45.034;38.910;2023-04-15T06:07:59;4.68;;;1.55;;
75687;SDS011;64300;45.034;38.910;2023-04-15T06:13:55;2.58;;;1.30;;
75687;SDS011;64300;45.034;38.910;2023-04-15T06:30:36;9.18;;;2.10;;
75687;SDS011;64300;45.034;38.910;2023-04-15T06:36:38;5.30;;;1.88;;
75687;SDS011;64300;45.034;38.910;2023-04-15T06:42:14;5.45;;;1.98;;
75687;SDS011;64300;45.034;38.910;2023-04-15T06:44:40;7.47;;;1.77;;
75687;SDS011;64300;45.034;38.910;2023-04-15T06:47:06;3.78;;;1.58;;
75687;SDS011;64300;45.034;38.910;2023-04-15T06:49:33;5.00;;;1.73;;
75687;SDS011;64300;45.034;38.910;2023-04-15T06:51:59;4.00;;;1.67;;
75687;SDS011;64300;45.034;38.910;2023-04-15T06:54:25;4.40;;;1.58;;
75687;SDS011;64300;45.034;38.910;2023-04-15T06:56:51;4.80;;;1.70;;
75687;SDS011;64300;45.034;38.910;2023-04-15T06:59:16;5.55;;;1.73;;
75687;SDS011;64300;45.034;38.910;2023-04-15T07:01:43;3.63;;;1.88;;
75687;SDS011;64300;45.034;38.910;2023-04-15T07:04:09;5.90;;;2.00;;
75687;SDS011;64300;45.034;38.910;2023-04-15T07:06:35;6.47;;;1.60;;
75687;SDS011;64300;45.034;38.910;2023-04-15T07:09:01;5.50;;;1.77;;
75687;SDS011;64300;45.034;38.910;2023-04-15T07:11:27;5.00;;;1.73;;
75687;SDS011;64300;45.034;38.910;2023-04-15T07:13:53;4.05;;;1.70;;
75687;SDS011;64300;45.034;38.910;2023-04-15T07:16:19;4.18;;;1.60;;
75687;SDS011;64300;45.034;38.910;2023-04-15T07:18:45;4.03;;;1.67;;
75687;SDS011;64300;45.034;38.910;2023-04-15T07:21:11;6.50;;;1.92;;
75687;SDS011;64300;45.034;38.910;2023-04-15T07:23:36;3.83;;;1.77;;
75687;SDS011;64300;45.034;38.910;2023-04-15T07:26:02;6.00;;;1.75;;
75687;SDS011;64300;45.034;38.910;2023-04-15T07:28:28;4.95;;;1.48;;
75687;SDS011;64300;45.034;38.910;2023-04-15T07:30:54;3.80;;;1.70;;
75687;SDS011;64300;45.034;38.910;2023-04-15T07:33:21;5.25;;;1.85;;
75687;SDS011;64300;45.034;38.910;2023-04-15T07:35:46;4.05;;;1.90;;
75687;SDS011;64300;45.034;38.910;2023-04-15T07:38:12;8.02;;;2.00;;
75687;SDS011;64300;45.034;38.910;2023-04-15T07:40:38;6.40;;;2.20;;
75687;SDS011;64300;45.034;38.910;2023-04-15T07:43:04;4.55;;;1.80;;
75687;SDS011;64300;45.034;38.910;2023-04-15T07:45:30;5.00;;;2.08;;
75687;SDS011;64300;45.034;38.910;2023-04-15T07:47:56;4.28;;;1.60;;
75687;SDS011;64300;45.034;38.910;2023-04-15T07:50:22;3.63;;;1.67;;
75687;SDS011;64300;45.034;38.910;2023-04-15T07:52:49;6.40;;;1.95;;
75687;SDS011;64300;45.034;38.910;2023-04-15T07:55:16;4.15;;;1.70;;
75687;SDS011;64300;45.034;38.910;2023-04-15T07:57:44;4.07;;;1.80;;
75687;SDS011;64300;45.034;38.910;2023-04-15T08:00:11;4.68;;;1.80;;
75687;SDS011;64300;45.034;38.910;2023-04-15T08:02:41;6.28;;;2.00;;
75687;SDS011;64300;45.034;38.910;2023-04-15T08:05:07;4.57;;;1.88;;
75687;SDS011;64300;45.034;38.910;2023-04-15T08:07:33;5.25;;;1.60;;
75687;SDS011;64300;45.034;38.910;2023-04-15T08:10:00;3.75;;;1.92;;
75687;SDS011;64300;45.034;38.910;2023-04-15T08:12:26;4.30;;;2.15;;
75687;SDS011;64300;45.034;38.910;2023-04-15T08:14:51;6.35;;;2.30;;
75687;SDS011;64300;45.034;38.910;2023-04-15T08:17:17;5.00;;;2.30;;
75687;SDS011;64300;45.034;38.910;2023-04-15T08:19:43;4.72;;;2.00;;
75687;SDS011;64300;45.034;38.910;2023-04-15T08:22:09;5.63;;;1.92;;
75687;SDS011;64300;45.034;38.910;2023-04-15T08:24:34;3.38;;;1.67;;
75687;SDS011;64300;45.034;38.910;2023-04-15T08:27:01;5.57;;;2.05;;
75687;SDS011;64300;45.034;38.910;2023-04-15T08:29:28;3.88;;;1.83;;
75687;SDS011;64300;45.034;38.910;2023-04-15T08:31:54;7.90;;;2.28;;
75687;SDS011;64300;45.034;38.910;2023-04-15T08:34:20;4.85;;;1.85;;
75687;SDS011;64300;45.034;38.910;2023-04-15T08:36:45;8.35;;;1.92;;
75687;SDS011;64300;45.034;38.910;2023-04-15T08:39:11;5.55;;;2.03;;
75687;SDS011;64300;45.034;38.910;2023-04-15T08:41:41;9.73;;;2.35;;
75687;SDS011;64300;45.034;38.910;2023-04-15T08:44:10;6.07;;;2.17;;
75687;SDS011;64300;45.034;38.910;2023-04-15T08:46:36;7.68;;;2.15;;
75687;SDS011;64300;45.034;38.910;2023-04-15T08:49:04;3.65;;;1.88;;
75687;SDS011;64300;45.034;38.910;2023-04-15T08:51:30;4.80;;;2.05;;
75687;SDS011;64300;45.034;38.910;2023-04-15T08:53:56;5.25;;;1.83;;
75687;SDS011;64300;45.034;38.910;2023-04-15T08:56:23;6.10;;;1.92;;
75687;SDS011;64300;45.034;38.910;2023-04-15T08:58:49;5.72;;;2.05;;
75687;SDS011;64300;45.034;38.910;2023-04-15T09:01:16;3.80;;;1.80;;
75687;SDS011;64300;45.034;38.910;2023-04-15T09:03:41;5.10;;;2.30;;
75687;SDS011;64300;45.034;38.910;2023-04-15T09:06:08;4.13;;;2.03;;
75687;SDS011;64300;45.034;38.910;2023-04-15T09:08:33;6.05;;;2.13;;
75687;SDS011;64300;45.034;38.910;2023-04-15T09:11:03;3.97;;;1.85;;
75687;SDS011;64300;45.034;38.910;2023-04-15T09:13:28;7.38;;;1.90;;
75687;SDS011;64300;45.034;38.910;2023-04-15T09:16:01;5.45;;;2.10;;
75687;SDS011;64300;45.034;38.910;2023-04-15T09:18:28;5.60;;;2.08;;
75687;SDS011;64300;45.034;38.910;2023-04-15T09:20:54;6.75;;;2.65;;
75687;SDS011;64300;45.034;38.910;2023-04-15T09:23:22;12.38;;;2.40;;
75687;SDS011;64300;45.034;38.910;2023-04-15T09:25:48;5.10;;;2.35;;
75687;SDS011;64300;45.034;38.910;2023-04-15T09:28:14;9.95;;;2.92;;
75687;SDS011;64300;45.034;38.910;2023-04-15T09:30:59;8.45;;;3.05;;
75687;SDS011;64300;45.034;38.910;2023-04-15T09:33:25;6.70;;;3.17;;
75687;SDS011;64300;45.034;38.910;2023-04-15T09:35:56;4.00;;;2.30;;
75687;SDS011;64300;45.034;38.910;2023-04-15T09:38:22;6.40;;;3.47;;
75687;SDS011;64300;45.034;38.910;2023-04-15T09:40:48;5.60;;;2.80;;
75687;SDS011;64300;45.034;38.910;2023-04-15T09:43:13;6.45;;;2.97;;
75687;SDS011;64300;45.034;38.910;2023-04-15T09:45:46;5.70;;;2.97;;
75687;SDS011;64300;45.034;38.910;2023-04-15T09:48:22;6.65;;;3.30;;
75687;SDS011;64300;45.034;38.910;2023-04-15T09:50:48;7.75;;;3.10;;
75687;SDS011;64300;45.034;38.910;2023-04-15T09:53:18;7.53;;;3.22;;
75687;SDS011;64300;45.034;38.910;2023-04-15T09:55:45;9.77;;;3.30;;
75687;SDS011;64300;45.034;38.910;2023-04-15T09:58:17;7.32;;;3.50;;
75687;SDS011;64300;45.034;38.910;2023-04-15T10:00:44;6.13;;;3.33;;
75687;SDS011;64300;45.034;38.910;2023-04-15T10:03:11;7.35;;;3.65;;
75687;SDS011;64300;45.034;38.910;2023-04-15T10:05:37;7.10;;;3.30;;
75687;SDS011;64300;45.034;38.910;2023-04-15T10:08:04;8.00;;;2.78;;
75687;SDS011;64300;45.034;38.910;2023-04-15T10:10:30;5.65;;;2.70;;
75687;SDS011;64300;45.034;38.910;2023-04-15T10:12:57;5.85;;;2.72;;
75687;SDS011;64300;45.034;38.910;2023-04-15T10:15:23;8.07;;;3.00;;
75687;SDS011;64300;45.034;38.910;2023-04-15T10:17:49;5.93;;;3.10;;
75687;SDS011;64300;45.034;38.910;2023-04-15T10:20:16;9.52;;;3.30;;
75687;SDS011;64300;45.034;38.910;2023-04-15T10:22:43;7.38;;;3.13;;
75687;SDS011;64300;45.034;38.910;2023-04-15T10:25:09;6.85;;;3.35;;
75687;SDS011;64300;45.034;38.910;2023-04-15T10:27:39;8.25;;;3.33;;
75687;SDS011;64300;45.034;38.910;2023-04-15T10:30:06;8.05;;;3.00;;
75687;SDS011;64300;45.034;38.910;2023-04-15T10:32:33;7.60;;;2.95;;
75687;SDS011;64300;45.034;38.910;2023-04-15T10:34:59;5.85;;;3.10;;
75687;SDS011;64300;45.034;38.910;2023-04-15T10:37:33;6.93;;;3.00;;
75687;SDS011;64300;45.034;38.910;2023-04-15T10:39:59;6.35;;;3.35;;
75687;SDS011;64300;45.034;38.910;2023-04-15T10:42:25;7.28;;;3.22;;
75687;SDS011;64300;45.034;38.910;2023-04-15T10:44:57;6.50;;;3.10;;
75687;SDS011;64300;45.034;38.910;2023-04-15T10:47:24;7.93;;;3.00;;
75687;SDS011;64300;45.034;38.910;2023-04-15T10:49:51;8.05;;;3.05;;
75687;SDS011;64300;45.034;38.910;2023-04-15T10:52:17;5.90;;;2.85;;
75687;SDS011;64300;45.034;38.910;2023-04-15T10:54:43;7.32;;;3.55;;
75687;SDS011;64300;45.034;38.910;2023-04-15T10:57:22;6.18;;;2.88;;
75687;SDS011;64300;45.034;38.910;2023-04-15T11:02:56;7.45;;;3.03;;
75687;SDS011;64300;45.034;38.910;2023-04-15T11:05:18;7.38;;;3.08;;
75687;SDS011;64300;45.034;38.910;2023-04-15T11:12:38;8.15;;;3.58;;
75687;SDS011;64300;45.034;38.910;2023-04-15T11:17:48;5.22;;;3.10;;
75687;SDS011;64300;45.034;38.910;2023-04-15T11:20:15;7.68;;;3.30;;
75687;SDS011;64300;45.034;38.910;2023-04-15T11:22:54;6.43;;;3.20;;
75687;SDS011;64300;45.034;38.910;2023-04-15T11:27:45;9.95;;;4.10;;
75687;SDS011;64300;45.034;38.910;2023-04-15T11:30:21;8.07;;;3.88;;
75687;SDS011;64300;45.034;38.910;2023-04-15T11:32:50;9.38;;;4.45;;
75687;SDS011;64300;45.034;38.910;2023-04-15T11:35:18;8.27;;;4.18;;
75687;SDS011;64300;45.034;38.910;2023-04-15T11:37:47;9.07;;;3.80;;
75687;SDS011;64300;45.034;38.910;2023-04-15T11:40:13;8.02;;;3.92;;
75687;SDS011;64300;45.034;38.910;2023-04-15T11:42:42;8.02;;;3.97;;
75687;SDS011;64300;45.034;38.910;2023-04-15T11:45:08;9.35;;;4.40;;
75687;SDS011;64300;45.034;38.910;2023-04-15T11:47:34;13.65;;;4.28;;
75687;SDS011;64300;45.034;38.910;2023-04-15T11:52:39;9.20;;;3.97;;
75687;SDS011;64300;45.034;38.910;2023-04-15T11:55:06;7.82;;;4.97;;
75687;SDS011;64300;45.034;38.910;2023-04-15T11:57:31;7.82;;;3.55;;
75687;SDS011;64300;45.034;38.910;2023-04-15T11:59:59;8.25;;;4.30;;
75687;SDS011;64300;45.034;38.910;2023-04-15T12:02:30;8.85;;;4.10;;
75687;SDS011;64300;45.034;38.910;2023-04-15T12:05:03;7.03;;;4.47;;
75687;SDS011;64300;45.034;38.910;2023-04-15T12:07:29;7.53;;;3.58;;
75687;SDS011;64300;45.034;38.910;2023-04-15T12:09:55;8.60;;;3.55;;
75687;SDS011;64300;45.034;38.910;2023-04-15T12:12:21;14.77;;;4.57;;
75687;SDS011;64300;45.034;38.910;2023-04-15T12:14:55;6.78;;;3.80;;
75687;SDS011;64300;45.034;38.910;2023-04-15T12:17:21;7.03;;;4.07;;
75687;SDS011;64300;45.034;38.910;2023-04-15T12:19:47;8.77;;;4.50;;
75687;SDS011;64300;45.034;38.910;2023-04-15T12:22:15;12.85;;;4.80;;
75687;SDS011;64300;45.034;38.910;2023-04-15T12:24:41;12.48;;;4.80;;
75687;SDS011;64300;45.034;38.910;2023-04-15T12:27:12;10.02;;;4.60;;
75687;SDS011;64300;45.034;38.910;2023-04-15T12:29:40;13.68;;;5.07;;
75687;SDS011;64300;45.034;38.910;2023-04-15T12:32:08;10.10;;;4.47;;
75687;SDS011;64300;45.034;38.910;2023-04-15T12:34:38;11.20;;;4.72;;
75687;SDS011;64300;45.034;38.910;2023-04-15T12:37:04;17.08;;;4.97;;
75687;SDS011;64300;45.034;38.910;2023-04-15T12:39:31;11.55;;;5.40;;
75687;SDS011;64300;45.034;38.910;2023-04-15T12:41:59;10.48;;;4.82;;
75687;SDS011;64300;45.034;38.910;2023-04-15T12:44:26;17.33;;;4.70;;
75687;SDS011;64300;45.034;38.910;2023-04-15T12:46:52;9.13;;;4.18;;
75687;SDS011;64300;45.034;38.910;2023-04-15T12:49:18;8.18;;;4.10;;
75687;SDS011;64300;45.034;38.910;2023-04-15T12:51:49;11.40;;;4.70;;
75687;SDS011;64300;45.034;38.910;2023-04-15T12:54:16;13.57;;;5.32;;
75687;SDS011;64300;45.034;38.910;2023-04-15T12:56:42;14.65;;;4.78;;
75687;SDS011;64300;45.034;38.910;2023-04-15T12:59:08;12.75;;;4.50;;
75687;SDS011;64300;45.034;38.910;2023-04-15T13:01:34;12.52;;;5.20;;
75687;SDS011;64300;45.034;38.910;2023-04-15T13:03:59;11.10;;;5.22;;
75687;SDS011;64300;45.034;38.910;2023-04-15T13:06:25;11.82;;;5.60;;
75687;SDS011;64300;45.034;38.910;2023-04-15T13:08:51;19.15;;;5.13;;
75687;SDS011;64300;45.034;38.910;2023-04-15T13:11:21;10.20;;;5.43;;
75687;SDS011;64300;45.034;38.910;2023-04-15T13:13:47;8.65;;;4.35;;
75687;SDS011;64300;45.034;38.910;2023-04-15T13:16:13;12.43;;;5.40;;
75687;SDS011;64300;45.034;38.910;2023-04-15T13:18:38;9.10;;;4.35;;
75687;SDS011;64300;45.034;38.910;2023-04-15T13:21:04;12.88;;;5.30;;
75687;SDS011;64300;45.034;38.910;2023-04-15T13:23:32;13.25;;;5.40;;
75687;SDS011;64300;45.034;38.910;2023-04-15T13:25:57;11.52;;;4.78;;
75687;SDS011;64300;45.034;38.910;2023-04-15T13:28:23;11.18;;;5.43;;
75687;SDS011;64300;45.034;38.910;2023-04-15T13:30:49;12.73;;;5.20;;
75687;SDS011;64300;45.034;38.910;2023-04-15T13:35:59;9.00;;;3.95;;
75687;SDS011;64300;45.034;38.910;2023-04-15T13:38:25;10.95;;;5.47;;
75687;SDS011;64300;45.034;38.910;2023-04-15T13:40:51;9.20;;;4.93;;
75687;SDS011;64300;45.034;38.910;2023-04-15T13:43:17;10.25;;;4.90;;
75687;SDS011;64300;45.034;38.910;2023-04-15T13:45:43;13.55;;;4.88;;
75687;SDS011;64300;45.034;38.910;2023-04-15T13:48:08;12.75;;;4.93;;
75687;SDS011;64300;45.034;38.910;2023-04-15T13:50:34;13.77;;;4.38;;
75687;SDS011;64300;45.034;38.910;2023-04-15T13:53:00;10.73;;;4.50;;
75687;SDS011;64300;45.034;38.910;2023-04-15T13:55:26;14.55;;;4.32;;
75687;SDS011;64300;45.034;38.910;2023-04-15T13:57:52;13.18;;;4.72;;
75687;SDS011;64300;45.034;38.910;2023-04-15T14:00:18;8.38;;;4.35;;
75687;SDS011;64300;45.034;38.910;2023-04-15T14:02:44;10.85;;;3.97;;
75687;SDS011;64300;45.034;38.910;2023-04-15T14:05:10;8.98;;;3.88;;
75687;SDS011;64300;45.034;38.910;2023-04-15T14:07:37;11.57;;;4.78;;
75687;SDS011;64300;45.034;38.910;2023-04-15T14:10:02;9.52;;;4.20;;
75687;SDS011;64300;45.034;38.910;2023-04-15T14:12:28;10.85;;;4.47;;
75687;SDS011;64300;45.034;38.910;2023-04-15T14:14:54;13.18;;;4.45;;
75687;SDS011;64300;45.034;38.910;2023-04-15T14:17:19;10.15;;;4.18;;
75687;SDS011;64300;45.034;38.910;2023-04-15T14:19:45;7.97;;;4.03;;
75687;SDS011;64300;45.034;38.910;2023-04-15T14:22:11;9.20;;;4.20;;
75687;SDS011;64300;45.034;38.910;2023-04-15T14:24:36;11.40;;;4.75;;
75687;SDS011;64300;45.034;38.910;2023-04-15T14:27:02;7.05;;;3.72;;
75687;SDS011;64300;45.034;38.910;2023-04-15T14:29:28;8.90;;;4.07;;
75687;SDS011;64300;45.034;38.910;2023-04-15T14:31:54;7.65;;;4.00;;
75687;SDS011;64300;45.034;38.910;2023-04-15T14:34:31;11.25;;;4.45;;
75687;SDS011;64300;45.034;38.910;2023-04-15T14:36:57;10.20;;;4.05;;
75687;SDS011;64300;45.034;38.910;2023-04-15T14:39:22;10.95;;;4.20;;
75687;SDS011;64300;45.034;38.910;2023-04-15T14:41:48;5.40;;;2.70;;
75687;SDS011;64300;45.034;38.910;2023-04-15T14:44:14;8.05;;;4.25;;
75687;SDS011;64300;45.034;38.910;2023-04-15T14:46:40;8.75;;;4.43;;
75687;SDS011;64300;45.034;38.910;2023-04-15T14:49:06;6.65;;;3.65;;
75687;SDS011;64300;45.034;38.910;2023-04-15T14:51:32;9.27;;;3.88;;
75687;SDS011;64300;45.034;38.910;2023-04-15T14:53:58;8.82;;;4.25;;
75687;SDS011;64300;45.034;38.910;2023-04-15T14:56:25;6.10;;;3.17;;
75687;SDS011;64300;45.034;38.910;2023-04-15T14:58:52;6.53;;;3.05;;
75687;SDS011;64300;45.034;38.910;2023-04-15T15:01:18;9.00;;;3.25;;
75687;SDS011;64300;45.034;38.910;2023-04-15T15:03:45;10.48;;;3.88;;
75687;SDS011;64300;45.034;38.910;2023-04-15T15:06:11;8.30;;;2.70;;
75687;SDS011;64300;45.034;38.910;2023-04-15T15:08:39;11.57;;;3.92;;
75687;SDS011;64300;45.034;38.910;2023-04-15T15:11:05;6.57;;;3.42;;
75687;SDS011;64300;45.034;38.910;2023-04-15T15:13:31;9.75;;;3.70;;
75687;SDS011;64300;45.034;38.910;2023-04-15T15:15:57;7.10;;;3.30;;
75687;SDS011;64300;45.034;38.910;2023-04-15T15:18:23;6.25;;;3.20;;
75687;SDS011;64300;45.034;38.910;2023-04-15T15:20:50;8.77;;;3.83;;
75687;SDS011;64300;45.034;38.910;2023-04-15T15:23:16;9.25;;;3.40;;
75687;SDS011;64300;45.034;38.910;2023-04-15T15:25:42;10.68;;;3.40;;
75687;SDS011;64300;45.034;38.910;2023-04-15T15:28:08;10.30;;;3.05;;
75687;SDS011;64300;45.034;38.910;2023-04-15T15:30:34;6.57;;;3.10;;
75687;SDS011;64300;45.034;38.910;2023-04-15T15:33:00;7.25;;;3.10;;
75687;SDS011;64300;45.034;38.910;2023-04-15T15:35:25;8.32;;;3.78;;
75687;SDS011;64300;45.034;38.910;2023-04-15T15:37:52;6.45;;;3.05;;
75687;SDS011;64300;45.034;38.910;2023-04-15T15:40:17;6.30;;;3.10;;
75687;SDS011;64300;45.034;38.910;2023-04-15T15:42:43;5.85;;;2.72;;
75687;SDS011;64300;45.034;38.910;2023-04-15T15:45:09;7.05;;;3.30;;
75687;SDS011;64300;45.034;38.910;2023-04-15T15:47:34;6.32;;;2.85;;